New Providence, NJ

08:12 AM EDT on Oktober 01, 2014 (GMT -0400)
Murray Hill | Change Station
CLOSE
Current Station
Personal Weather Stations
Location: Murray Hill, NJ
Elevation: 518 ft
Nearby Weather Stations

Elev 518 ft 40.69 °N, 74.39 °W | Updated 27 minutes ago

Toe getrek
Toe getrek
57.5 °F
Feels Like 57.5 °F
N
0.0
Wind Veranderlik Wind from Suid
Gusts 2.2 mph

Vandag
High -- | Low -- °F
--% Chance of Precip.
Yesterday
High -- | Low -- °F
Precip. -- in
6:54 AM 6:39 PM
Waxing Crescent, 47% visible
Druk 30.03 in
Sigbaarheid 7.0 myle
Wolke Meestal Bewolk 2000 ft
Toe getrek 3500 ft
Dou-punt 55 °F
Humiditeit 92%
Rainfall 0.00 in
Snow Depth Not available.
UV 0 out of 12
Pollen 2.30 out of 12
Air Quality Not available.
Flu Activity Not available.
METAR KMMU 011145Z 00000KT 7SM BKN020 OVC035 16/14 A3003

More Conditions Fewer Conditions

Druk 30.03 in
Sigbaarheid 7.0 myle
Wolke Meestal Bewolk 2000 ft
Toe getrek 3500 ft
Dou-punt 55 °F
Humiditeit 92%
Rainfall 0.00 in
Snow Depth Not available.
UV 0 out of 12
Pollen 2.30 out of 12
Air Quality Not available.
Flu Activity Not available.
METAR KMMU 011145Z 00000KT 7SM BKN020 OVC035 16/14 A3003

More Conditions Fewer Conditions

10-Day Weather Forecast

Almanac

Astronomy

Oct. 01, 2014 Rise Set
Ware Tyd 6:54 AM EDT 6:39 PM EDT
Civil Twilight 6:26 AM EDT 7:07 PM EDT
Nautical Twilight 5:55 AM EDT 7:38 PM EDT
Astronomical Twilight 5:23 AM EDT 8:10 PM EDT
Maan 1:54 PM EDT Geen Maan Ondergang
Length Of Visible Light 12h 40m
Length of Day
11h 45m
Tomorrow will be 2m 40s shorter.
Waxing Crescent, 47% of the Moon is Illuminated
Vandag
Waxing Crescent
Oct 1
Eerste Kwartier
Oct 8
Vol Maan
Oct 15
Laaste kwarter
Oct 23
New

Today's Extremes

State Highs State Lows

Community

WunderPhotos

Upload Photos

1,757,914 photos uploaded!

WunderBlogs® & News

Nearby

Snow Depth

Station Depth Elevation
No new snow has been reported.

Earthquake Activity

Stad Distance Mag. Time & Date
No recent earthquake activity has been reported nearby.
Minimum magnitude displayed is 2.5.

Coastal Water Temperatures

Plek Temperatuur
Sandy Hook, NJ 68.0 °F
The Battery, NY 69.1 °F
Bergen Point West Reach, NJ 69.1 °F
Kings Point, NY 66.9 °F

Nearby Weather Stations